sensor_id;sensor_type;location;lat;lon;timestamp;pressure;altitude;pressure_sealevel;temperature;humidity
85782;BME280;76219;50.128;8.728;2024-03-08T00:02:08;100743.81;;;3.96;58.54
85782;BME280;76219;50.128;8.728;2024-03-08T00:04:37;100739.78;;;3.86;58.72
85782;BME280;76219;50.128;8.728;2024-03-08T00:07:07;100744.25;;;3.84;59.49
85782;BME280;76219;50.128;8.728;2024-03-08T00:09:36;100742.09;;;3.70;59.33
85782;BME280;76219;50.128;8.728;2024-03-08T00:12:04;100740.72;;;3.60;59.37
85782;BME280;76219;50.128;8.728;2024-03-08T00:14:36;100732.22;;;3.76;59.67
85782;BME280;76219;50.128;8.728;2024-03-08T00:17:06;100733.09;;;3.77;59.57
85782;BME280;76219;50.128;8.728;2024-03-08T00:19:36;100736.94;;;3.67;60.07
85782;BME280;76219;50.128;8.728;2024-03-08T00:22:05;100737.19;;;3.61;60.14
85782;BME280;76219;50.128;8.728;2024-03-08T00:24:37;100731.28;;;3.54;60.74
85782;BME280;76219;50.128;8.728;2024-03-08T00:27:07;100727.34;;;3.41;60.62
85782;BME280;76219;50.128;8.728;2024-03-08T00:29:35;100726.84;;;3.30;61.12
85782;BME280;76219;50.128;8.728;2024-03-08T00:32:05;100726.31;;;3.45;60.44
85782;BME280;76219;50.128;8.728;2024-03-08T00:34:39;100724.91;;;3.36;60.17
85782;BME280;76219;50.128;8.728;2024-03-08T00:37:11;100726.91;;;3.28;61.34
85782;BME280;76219;50.128;8.728;2024-03-08T00:39:39;100718.69;;;3.39;60.32
85782;BME280;76219;50.128;8.728;2024-03-08T00:42:08;100723.00;;;3.40;60.31
85782;BME280;76219;50.128;8.728;2024-03-08T00:44:36;100721.50;;;3.33;60.76
85782;BME280;76219;50.128;8.728;2024-03-08T00:47:05;100719.03;;;3.28;61.15
85782;BME280;76219;50.128;8.728;2024-03-08T00:49:35;100714.31;;;3.13;63.12
85782;BME280;76219;50.128;8.728;2024-03-08T00:52:04;100716.38;;;3.03;63.08
85782;BME280;76219;50.128;8.728;2024-03-08T00:54:38;100710.16;;;3.06;62.36
85782;BME280;76219;50.128;8.728;2024-03-08T00:57:11;100710.09;;;3.07;62.14
85782;BME280;76219;50.128;8.728;2024-03-08T00:59:39;100707.19;;;2.90;62.52
85782;BME280;76219;50.128;8.728;2024-03-08T01:02:08;100712.28;;;2.95;62.69
85782;BME280;76219;50.128;8.728;2024-03-08T01:04:38;100699.97;;;2.97;62.87
85782;BME280;76219;50.128;8.728;2024-03-08T01:07:07;100696.53;;;2.95;63.00
85782;BME280;76219;50.128;8.728;2024-03-08T01:09:37;100690.38;;;2.96;62.75
85782;BME280;76219;50.128;8.728;2024-03-08T01:12:07;100693.41;;;2.83;63.65
85782;BME280;76219;50.128;8.728;2024-03-08T01:14:35;100692.31;;;2.89;63.35
85782;BME280;76219;50.128;8.728;2024-03-08T01:17:05;100686.88;;;2.69;64.01
85782;BME280;76219;50.128;8.728;2024-03-08T01:19:33;100678.44;;;2.59;64.58
85782;BME280;76219;50.128;8.728;2024-03-08T01:22:03;100681.16;;;2.56;65.35
85782;BME280;76219;50.128;8.728;2024-03-08T01:24:32;100678.72;;;2.50;64.79
85782;BME280;76219;50.128;8.728;2024-03-08T01:27:02;100666.34;;;2.55;63.83
85782;BME280;76219;50.128;8.728;2024-03-08T01:29:31;100660.72;;;2.66;64.06
85782;BME280;76219;50.128;8.728;2024-03-08T01:32:00;100663.63;;;2.58;63.87
85782;BME280;76219;50.128;8.728;2024-03-08T01:34:30;100659.69;;;2.45;64.11
85782;BME280;76219;50.128;8.728;2024-03-08T01:36:59;100648.63;;;2.61;63.58
85782;BME280;76219;50.128;8.728;2024-03-08T01:39:29;100648.41;;;2.69;63.09
85782;BME280;76219;50.128;8.728;2024-03-08T01:42:00;100642.06;;;2.48;64.03
85782;BME280;76219;50.128;8.728;2024-03-08T01:44:29;100644.63;;;2.50;63.49
85782;BME280;76219;50.128;8.728;2024-03-08T01:46:58;100645.31;;;2.56;63.41
85782;BME280;76219;50.128;8.728;2024-03-08T01:49:27;100641.41;;;2.42;64.09
85782;BME280;76219;50.128;8.728;2024-03-08T01:51:57;100634.16;;;2.50;63.25
85782;BME280;76219;50.128;8.728;2024-03-08T01:54:30;100633.97;;;2.56;nan
85782;BME280;76219;50.128;8.728;2024-03-08T01:56:59;100638.19;;;2.60;63.20
85782;BME280;76219;50.128;8.728;2024-03-08T01:59:28;100638.22;;;2.32;63.61
85782;BME280;76219;50.128;8.728;2024-03-08T02:02:01;100634.16;;;2.50;63.16
85782;BME280;76219;50.128;8.728;2024-03-08T02:04:30;100636.16;;;2.42;63.41
85782;BME280;76219;50.128;8.728;2024-03-08T02:06:59;100623.03;;;2.42;63.45
85782;BME280;76219;50.128;8.728;2024-03-08T02:09:29;100626.91;;;2.30;63.62
85782;BME280;76219;50.128;8.728;2024-03-08T02:12:00;100622.84;;;2.48;63.29
85782;BME280;76219;50.128;8.728;2024-03-08T02:14:35;100623.91;;;2.42;63.41
85782;BME280;76219;50.128;8.728;2024-03-08T02:17:04;100616.25;;;2.36;63.91
85782;BME280;76219;50.128;8.728;2024-03-08T02:19:32;100617.09;;;2.37;63.93
85782;BME280;76219;50.128;8.728;2024-03-08T02:22:07;100613.22;;;2.48;63.41
85782;BME280;76219;50.128;8.728;2024-03-08T02:24:37;100609.53;;;2.27;63.85
85782;BME280;76219;50.128;8.728;2024-03-08T02:27:05;100609.41;;;2.30;64.32
85782;BME280;76219;50.128;8.728;2024-03-08T02:29:36;100607.91;;;2.23;65.56
85782;BME280;76219;50.128;8.728;2024-03-08T02:32:06;100608.13;;;2.16;64.80
85782;BME280;76219;50.128;8.728;2024-03-08T02:34:35;100608.84;;;1.93;65.73
85782;BME280;76219;50.128;8.728;2024-03-08T02:37:05;100615.38;;;2.08;66.26
85782;BME280;76219;50.128;8.728;2024-03-08T02:39:33;100615.19;;;1.84;66.62
85782;BME280;76219;50.128;8.728;2024-03-08T02:42:02;100605.47;;;1.89;67.02
85782;BME280;76219;50.128;8.728;2024-03-08T02:44:32;100606.38;;;1.88;67.10
85782;BME280;76219;50.128;8.728;2024-03-08T02:47:01;100604.78;;;1.83;66.93
85782;BME280;76219;50.128;8.728;2024-03-08T02:49:30;100609.94;;;1.86;67.02
85782;BME280;76219;50.128;8.728;2024-03-08T02:52:01;100599.72;;;1.77;67.09
85782;BME280;76219;50.128;8.728;2024-03-08T02:54:30;100604.44;;;1.65;67.33
85782;BME280;76219;50.128;8.728;2024-03-08T02:56:58;100607.00;;;1.67;67.96
85782;BME280;76219;50.128;8.728;2024-03-08T02:59:26;100604.69;;;1.56;68.29
85782;BME280;76219;50.128;8.728;2024-03-08T03:01:56;100602.88;;;1.58;68.50
85782;BME280;76219;50.128;8.728;2024-03-08T03:04:29;100600.41;;;1.54;68.05
85782;BME280;76219;50.128;8.728;2024-03-08T03:06:57;100593.31;;;1.57;68.63
85782;BME280;76219;50.128;8.728;2024-03-08T03:09:26;100597.09;;;1.47;69.05
85782;BME280;76219;50.128;8.728;2024-03-08T03:11:56;100594.72;;;1.39;69.28
85782;BME280;76219;50.128;8.728;2024-03-08T03:14:25;100590.03;;;1.49;68.75
85782;BME280;76219;50.128;8.728;2024-03-08T03:16:56;100592.97;;;1.38;69.48
85782;BME280;76219;50.128;8.728;2024-03-08T03:19:27;100593.59;;;1.17;70.28
85782;BME280;76219;50.128;8.728;2024-03-08T03:21:57;100594.25;;;1.24;69.66
85782;BME280;76219;50.128;8.728;2024-03-08T03:24:26;100593.25;;;1.29;69.87
85782;BME280;76219;50.128;8.728;2024-03-08T03:26:58;100593.06;;;1.04;70.71
85782;BME280;76219;50.128;8.728;2024-03-08T03:29:26;100590.69;;;1.26;69.99
85782;BME280;76219;50.128;8.728;2024-03-08T03:31:55;100589.72;;;1.30;69.49
85782;BME280;76219;50.128;8.728;2024-03-08T03:34:25;100581.41;;;1.16;70.01
85782;BME280;76219;50.128;8.728;2024-03-08T03:36:54;100572.41;;;1.25;69.48
85782;BME280;76219;50.128;8.728;2024-03-08T03:39:23;100578.31;;;1.00;70.81
85782;BME280;76219;50.128;8.728;2024-03-08T03:41:52;100584.13;;;1.11;70.66
85782;BME280;76219;50.128;8.728;2024-03-08T03:44:21;100581.41;;;1.14;70.38
85782;BME280;76219;50.128;8.728;2024-03-08T03:46:50;100578.78;;;1.16;70.40
85782;BME280;76219;50.128;8.728;2024-03-08T03:49:20;100575.34;;;0.81;71.05
85782;BME280;76219;50.128;8.728;2024-03-08T03:51:50;100572.47;;;0.91;71.33
85782;BME280;76219;50.128;8.728;2024-03-08T03:54:18;100571.81;;;1.15;70.04
85782;BME280;76219;50.128;8.728;2024-03-08T03:56:47;100572.72;;;1.14;69.69
85782;BME280;76219;50.128;8.728;2024-03-08T03:59:19;100570.94;;;1.14;70.06
85782;BME280;76219;50.128;8.728;2024-03-08T04:01:49;100563.28;;;1.08;70.26
85782;BME280;76219;50.128;8.728;2024-03-08T04:04:17;100555.19;;;1.17;70.21
85782;BME280;76219;50.128;8.728;2024-03-08T04:06:47;100559.34;;;1.25;69.91
85782;BME280;76219;50.128;8.728;2024-03-08T04:09:17;100560.84;;;1.33;69.33
85782;BME280;76219;50.128;8.728;2024-03-08T04:11:46;100559.56;;;1.17;70.29
85782;BME280;76219;50.128;8.728;2024-03-08T04:14:14;100561.78;;;1.31;69.59
85782;BME280;76219;50.128;8.728;2024-03-08T04:16:43;100565.72;;;1.16;69.87
85782;BME280;76219;50.128;8.728;2024-03-08T04:19:13;100564.34;;;1.01;70.08
85782;BME280;76219;50.128;8.728;2024-03-08T04:21:41;100560.69;;;1.08;70.63
85782;BME280;76219;50.128;8.728;2024-03-08T04:24:09;100565.72;;;1.14;70.30
85782;BME280;76219;50.128;8.728;2024-03-08T04:26:38;100566.34;;;1.24;70.08
85782;BME280;76219;50.128;8.728;2024-03-08T04:29:06;100567.53;;;1.12;70.41
85782;BME280;76219;50.128;8.728;2024-03-08T04:31:35;100564.09;;;1.10;70.70
85782;BME280;76219;50.128;8.728;2024-03-08T04:34:05;100563.63;;;0.96;70.76
85782;BME280;76219;50.128;8.728;2024-03-08T04:36:35;100561.88;;;0.97;70.72
85782;BME280;76219;50.128;8.728;2024-03-08T04:39:04;100563.72;;;0.93;71.25
85782;BME280;76219;50.128;8.728;2024-03-08T04:41:33;100563.25;;;0.77;71.89
85782;BME280;76219;50.128;8.728;2024-03-08T04:44:04;100554.41;;;0.83;71.58
85782;BME280;76219;50.128;8.728;2024-03-08T04:46:33;100561.38;;;0.82;71.45
85782;BME280;76219;50.128;8.728;2024-03-08T04:49:03;100554.16;;;0.91;71.26
85782;BME280;76219;50.128;8.728;2024-03-08T04:51:35;100556.03;;;0.87;71.57
85782;BME280;76219;50.128;8.728;2024-03-08T04:54:04;100553.44;;;0.85;71.29
85782;BME280;76219;50.128;8.728;2024-03-08T04:56:34;100556.50;;;1.01;71.04
85782;BME280;76219;50.128;8.728;2024-03-08T04:59:17;100550.03;;;1.14;70.88
85782;BME280;76219;50.128;8.728;2024-03-08T05:01:46;100558.22;;;1.02;70.77
85782;BME280;76219;50.128;8.728;2024-03-08T05:04:14;100550.50;;;0.98;70.86
85782;BME280;76219;50.128;8.728;2024-03-08T05:06:44;100550.63;;;0.93;70.89
85782;BME280;76219;50.128;8.728;2024-03-08T05:09:14;100545.13;;;1.02;71.04
85782;BME280;76219;50.128;8.728;2024-03-08T05:11:45;100540.81;;;1.01;70.79
85782;BME280;76219;50.128;8.728;2024-03-08T05:14:15;100539.91;;;1.02;70.70
85782;BME280;76219;50.128;8.728;2024-03-08T05:16:47;100536.53;;;0.99;70.91
85782;BME280;76219;50.128;8.728;2024-03-08T05:19:20;100549.69;;;0.96;71.28
85782;BME280;76219;50.128;8.728;2024-03-08T05:21:51;100543.66;;;0.92;71.18
85782;BME280;76219;50.128;8.728;2024-03-08T05:24:22;100547.94;;;0.96;71.02
85782;BME280;76219;50.128;8.728;2024-03-08T05:26:57;100533.25;;;0.91;71.09
85782;BME280;76219;50.128;8.728;2024-03-08T05:29:28;100545.38;;;0.95;70.97
85782;BME280;76219;50.128;8.728;2024-03-08T05:31:57;100544.31;;;1.00;70.86
85782;BME280;76219;50.128;8.728;2024-03-08T05:34:26;100539.47;;;0.86;71.13
85782;BME280;76219;50.128;8.728;2024-03-08T05:36:57;100532.53;;;0.85;70.95
85782;BME280;76219;50.128;8.728;2024-03-08T05:39:27;100541.56;;;0.74;71.18
85782;BME280;76219;50.128;8.728;2024-03-08T05:41:57;100542.13;;;0.85;71.26
85782;BME280;76219;50.128;8.728;2024-03-08T05:44:26;100539.63;;;0.80;71.02
85782;BME280;76219;50.128;8.728;2024-03-08T05:46:56;100537.06;;;0.79;71.40
85782;BME280;76219;50.128;8.728;2024-03-08T05:49:26;100519.56;;;0.81;71.40
85782;BME280;76219;50.128;8.728;2024-03-08T05:51:59;100525.03;;;1.04;70.45
85782;BME280;76219;50.128;8.728;2024-03-08T05:54:30;100529.66;;;0.95;70.83
85782;BME280;76219;50.128;8.728;2024-03-08T05:57:00;100527.72;;;1.01;70.38
85782;BME280;76219;50.128;8.728;2024-03-08T05:59:30;100522.44;;;1.03;70.77
85782;BME280;76219;50.128;8.728;2024-03-08T06:02:01;100515.56;;;1.00;70.70
85782;BME280;76219;50.128;8.728;2024-03-08T06:04:30;100524.09;;;1.07;70.45
85782;BME280;76219;50.128;8.728;2024-03-08T06:07:00;100521.03;;;1.22;71.00
85782;BME280;76219;50.128;8.728;2024-03-08T06:09:33;100516.44;;;1.30;69.72
85782;BME280;76219;50.128;8.728;2024-03-08T06:12:02;100530.44;;;1.29;70.27
85782;BME280;76219;50.128;8.728;2024-03-08T06:14:33;100524.31;;;1.30;69.56
85782;BME280;76219;50.128;8.728;2024-03-08T06:17:04;100524.25;;;1.32;69.52
85782;BME280;76219;50.128;8.728;2024-03-08T06:19:39;100514.50;;;1.37;70.01
85782;BME280;76219;50.128;8.728;2024-03-08T06:22:09;100523.44;;;1.30;69.78
85782;BME280;76219;50.128;8.728;2024-03-08T06:24:39;100515.03;;;1.48;69.14
85782;BME280;76219;50.128;8.728;2024-03-08T06:27:08;100523.25;;;1.65;68.76
85782;BME280;76219;50.128;8.728;2024-03-08T06:29:40;100505.59;;;2.00;67.22
85782;BME280;76219;50.128;8.728;2024-03-08T06:32:08;100513.28;;;2.31;65.94
85782;BME280;76219;50.128;8.728;2024-03-08T06:34:39;100511.88;;;2.47;65.09
85782;BME280;76219;50.128;8.728;2024-03-08T06:37:08;100512.34;;;3.08;63.62
85782;BME280;76219;50.128;8.728;2024-03-08T06:39:38;100515.84;;;3.32;63.35
85782;BME280;76219;50.128;8.728;2024-03-08T06:42:07;100507.97;;;3.77;61.06
85782;BME280;76219;50.128;8.728;2024-03-08T06:44:40;100512.25;;;3.80;60.36
85782;BME280;76219;50.128;8.728;2024-03-08T06:47:16;100512.66;;;4.35;58.98
85782;BME280;76219;50.128;8.728;2024-03-08T06:49:45;100512.38;;;3.77;60.79
85782;BME280;76219;50.128;8.728;2024-03-08T06:52:22;100510.72;;;4.40;59.53
85782;BME280;76219;50.128;8.728;2024-03-08T06:54:51;100509.56;;;5.46;55.44
85782;BME280;76219;50.128;8.728;2024-03-08T06:57:20;100510.13;;;5.34;56.36
85782;BME280;76219;50.128;8.728;2024-03-08T06:59:51;100506.78;;;4.71;57.96
85782;BME280;76219;50.128;8.728;2024-03-08T07:02:21;100503.75;;;4.80;58.14
85782;BME280;76219;50.128;8.728;2024-03-08T07:04:57;100503.44;;;5.06;56.80
85782;BME280;76219;50.128;8.728;2024-03-08T07:07:27;100496.75;;;6.12;53.23
85782;BME280;76219;50.128;8.728;2024-03-08T07:09:57;100493.78;;;6.37;53.79
85782;BME280;76219;50.128;8.728;2024-03-08T07:12:26;100490.94;;;6.05;54.15
85782;BME280;76219;50.128;8.728;2024-03-08T07:14:58;100480.56;;;6.20;54.21
85782;BME280;76219;50.128;8.728;2024-03-08T07:17:31;100481.88;;;5.56;54.99
85782;BME280;76219;50.128;8.728;2024-03-08T07:20:02;100490.09;;;5.67;54.50
85782;BME280;76219;50.128;8.728;2024-03-08T07:22:40;100479.56;;;5.67;55.16
85782;BME280;76219;50.128;8.728;2024-03-08T07:25:11;100473.50;;;6.20;52.88
85782;BME280;76219;50.128;8.728;2024-03-08T07:27:47;100460.31;;;7.05;51.80
85782;BME280;76219;50.128;8.728;2024-03-08T07:30:16;100473.94;;;5.94;54.08
85782;BME280;76219;50.128;8.728;2024-03-08T07:33:06;100468.53;;;6.83;51.42
85782;BME280;76219;50.128;8.728;2024-03-08T07:35:35;100473.03;;;7.14;51.42
85782;BME280;76219;50.128;8.728;2024-03-08T07:38:10;100466.69;;;7.81;48.66
85782;BME280;76219;50.128;8.728;2024-03-08T07:40:41;100465.47;;;7.24;50.47
85782;BME280;76219;50.128;8.728;2024-03-08T07:43:12;100464.63;;;7.23;51.46
85782;BME280;76219;50.128;8.728;2024-03-08T07:45:41;100456.13;;;7.01;50.91
85782;BME280;76219;50.128;8.728;2024-03-08T07:48:19;100451.41;;;7.86;49.34
85782;BME280;76219;50.128;8.728;2024-03-08T07:50:48;100448.84;;;7.38;50.11
85782;BME280;76219;50.128;8.728;2024-03-08T07:53:19;100455.63;;;8.36;48.62
85782;BME280;76219;50.128;8.728;2024-03-08T07:55:52;100442.50;;;9.49;44.94
85782;BME280;76219;50.128;8.728;2024-03-08T07:58:21;100452.06;;;8.06;49.29
85782;BME280;76219;50.128;8.728;2024-03-08T08:00:52;100445.31;;;7.54;48.64
85782;BME280;76219;50.128;8.728;2024-03-08T08:03:23;100436.81;;;9.96;44.27
85782;BME280;76219;50.128;8.728;2024-03-08T08:05:53;100431.19;;;10.01;44.27
85782;BME280;76219;50.128;8.728;2024-03-08T08:08:24;100434.69;;;8.76;45.64
85782;BME280;76219;50.128;8.728;2024-03-08T08:10:54;100429.44;;;7.54;48.74
85782;BME280;76219;50.128;8.728;2024-03-08T08:13:23;100432.13;;;8.74;47.17
85782;BME280;76219;50.128;8.728;2024-03-08T08:15:51;100436.13;;;7.13;50.38
85782;BME280;76219;50.128;8.728;2024-03-08T08:18:20;100429.28;;;8.63;47.61
85782;BME280;76219;50.128;8.728;2024-03-08T08:21:20;100425.88;;;9.32;45.50
85782;BME280;76219;50.128;8.728;2024-03-08T08:23:51;100432.66;;;8.21;47.29
85782;BME280;76219;50.128;8.728;2024-03-08T08:26:20;100415.91;;;10.31;43.92
85782;BME280;76219;50.128;8.728;2024-03-08T08:28:50;100413.66;;;9.71;44.62
85782;BME280;76219;50.128;8.728;2024-03-08T08:31:20;100408.50;;;9.55;45.23
85782;BME280;76219;50.128;8.728;2024-03-08T08:33:52;100410.53;;;9.23;45.12
85782;BME280;76219;50.128;8.728;2024-03-08T08:36:25;100404.13;;;9.96;44.69
85782;BME280;76219;50.128;8.728;2024-03-08T08:38:59;100403.91;;;8.45;47.19
85782;BME280;76219;50.128;8.728;2024-03-08T08:41:30;100390.03;;;10.20;44.47
85782;BME280;76219;50.128;8.728;2024-03-08T08:43:58;100386.59;;;10.45;43.54
85782;BME280;76219;50.128;8.728;2024-03-08T08:46:41;100384.66;;;10.98;40.27
85782;BME280;76219;50.128;8.728;2024-03-08T08:49:10;100380.84;;;10.26;43.91
85782;BME280;76219;50.128;8.728;2024-03-08T08:51:48;100377.19;;;11.16;40.44
85782;BME280;76219;50.128;8.728;2024-03-08T08:54:18;100387.88;;;10.52;42.57
85782;BME280;76219;50.128;8.728;2024-03-08T08:56:49;100375.84;;;11.47;41.49
85782;BME280;76219;50.128;8.728;2024-03-08T08:59:22;100370.88;;;11.30;41.17
85782;BME280;76219;50.128;8.728;2024-03-08T09:01:52;100364.94;;;10.77;41.75
85782;BME280;76219;50.128;8.728;2024-03-08T09:04:21;100364.63;;;12.03;39.79
85782;BME280;76219;50.128;8.728;2024-03-08T09:06:50;100368.34;;;10.54;42.54
85782;BME280;76219;50.128;8.728;2024-03-08T09:09:22;100364.44;;;12.74;38.02
85782;BME280;76219;50.128;8.728;2024-03-08T09:11:52;100349.38;;;12.96;37.28
85782;BME280;76219;50.128;8.728;2024-03-08T09:14:21;100353.16;;;11.18;41.65
85782;BME280;76219;50.128;8.728;2024-03-08T09:16:50;100350.94;;;11.96;39.37
85782;BME280;76219;50.128;8.728;2024-03-08T09:19:18;100340.31;;;13.96;35.89
85782;BME280;76219;50.128;8.728;2024-03-08T09:21:52;100342.72;;;13.24;36.39
85782;BME280;76219;50.128;8.728;2024-03-08T09:24:24;100330.47;;;14.89;34.03
85782;BME280;76219;50.128;8.728;2024-03-08T09:26:52;100336.03;;;12.29;39.06
85782;BME280;76219;50.128;8.728;2024-03-08T09:29:22;100340.25;;;11.85;39.69
85782;BME280;76219;50.128;8.728;2024-03-08T09:31:53;100330.13;;;12.59;36.27
85782;BME280;76219;50.128;8.728;2024-03-08T09:34:22;100323.06;;;13.36;36.56
85782;BME280;76219;50.128;8.728;2024-03-08T09:37:03;100320.63;;;12.21;36.82
85782;BME280;76219;50.128;8.728;2024-03-08T09:39:33;100301.50;;;12.94;37.15
85782;BME280;76219;50.128;8.728;2024-03-08T09:42:02;100303.81;;;10.77;40.26
85782;BME280;76219;50.128;8.728;2024-03-08T09:44:31;100293.59;;;13.69;34.98
85782;BME280;76219;50.128;8.728;2024-03-08T09:47:00;100287.25;;;14.33;34.60
85782;BME280;76219;50.128;8.728;2024-03-08T09:49:32;100297.66;;;12.53;37.55
85782;BME280;76219;50.128;8.728;2024-03-08T09:52:03;100283.50;;;12.64;36.96
85782;BME280;76219;50.128;8.728;2024-03-08T09:54:36;100274.13;;;12.25;37.51
85782;BME280;76219;50.128;8.728;2024-03-08T09:57:06;100281.88;;;12.06;37.76
85782;BME280;76219;50.128;8.728;2024-03-08T09:59:36;100275.34;;;13.95;34.30
85782;BME280;76219;50.128;8.728;2024-03-08T10:02:18;100269.09;;;13.32;34.10
85782;BME280;76219;50.128;8.728;2024-03-08T10:04:48;100271.50;;;13.88;33.76
85782;BME280;76219;50.128;8.728;2024-03-08T10:07:17;100279.97;;;12.30;37.25
85782;BME280;76219;50.128;8.728;2024-03-08T10:09:51;100252.78;;;14.30;34.41
85782;BME280;76219;50.128;8.728;2024-03-08T10:12:24;100260.19;;;15.57;31.75
85782;BME280;76219;50.128;8.728;2024-03-08T10:14:55;100256.09;;;15.82;31.55
85782;BME280;76219;50.128;8.728;2024-03-08T10:17:23;100256.94;;;15.82;30.89
85782;BME280;76219;50.128;8.728;2024-03-08T10:19:55;100249.81;;;12.74;35.75
85782;BME280;76219;50.128;8.728;2024-03-08T10:22:26;100255.38;;;14.41;33.88
85782;BME280;76219;50.128;8.728;2024-03-08T10:25:03;100245.38;;;13.50;34.42
85782;BME280;76219;50.128;8.728;2024-03-08T10:27:34;100243.50;;;14.55;32.75
85782;BME280;76219;50.128;8.728;2024-03-08T10:30:06;100239.03;;;12.09;36.56
85782;BME280;76219;50.128;8.728;2024-03-08T10:32:40;100231.56;;;13.45;34.50
85782;BME280;76219;50.128;8.728;2024-03-08T10:35:10;100232.25;;;13.79;35.02
85782;BME280;76219;50.128;8.728;2024-03-08T10:37:44;100231.53;;;14.99;33.40
85782;BME280;76219;50.128;8.728;2024-03-08T10:40:17;100223.66;;;15.85;31.35
85782;BME280;76219;50.128;8.728;2024-03-08T10:42:52;100225.63;;;14.55;32.47
85782;BME280;76219;50.128;8.728;2024-03-08T10:45:31;100207.47;;;14.49;33.30
85782;BME280;76219;50.128;8.728;2024-03-08T10:48:10;100206.41;;;14.62;32.85
85782;BME280;76219;50.128;8.728;2024-03-08T10:50:43;100204.97;;;15.17;31.88
85782;BME280;76219;50.128;8.728;2024-03-08T10:53:17;100213.66;;;15.00;32.76
85782;BME280;76219;50.128;8.728;2024-03-08T10:55:50;100203.59;;;16.82;29.38
85782;BME280;76219;50.128;8.728;2024-03-08T10:58:21;100199.56;;;15.85;31.11
85782;BME280;76219;50.128;8.728;2024-03-08T11:00:56;100200.84;;;16.55;30.05
85782;BME280;76219;50.128;8.728;2024-03-08T11:03:46;100191.13;;;13.18;35.61
85782;BME280;76219;50.128;8.728;2024-03-08T11:06:18;100188.13;;;14.36;32.97
85782;BME280;76219;50.128;8.728;2024-03-08T11:08:51;100174.72;;;14.67;33.71
85782;BME280;76219;50.128;8.728;2024-03-08T11:11:27;100182.19;;;14.63;32.91
85782;BME280;76219;50.128;8.728;2024-03-08T11:14:02;100167.38;;;16.04;29.79
85782;BME280;76219;50.128;8.728;2024-03-08T11:16:40;100161.56;;;16.09;30.41
85782;BME280;76219;50.128;8.728;2024-03-08T11:19:26;100171.13;;;14.87;32.97
85782;BME280;76219;50.128;8.728;2024-03-08T11:22:02;100164.53;;;13.80;35.14
85782;BME280;76219;50.128;8.728;2024-03-08T11:24:39;100159.44;;;15.75;30.55
85782;BME280;76219;50.128;8.728;2024-03-08T11:27:14;100163.09;;;14.37;31.97
85782;BME280;76219;50.128;8.728;2024-03-08T11:29:45;100147.84;;;16.49;30.64
85782;BME280;76219;50.128;8.728;2024-03-08T11:32:15;100142.38;;;14.29;32.82
85782;BME280;76219;50.128;8.728;2024-03-08T11:34:46;100144.41;;;16.29;30.05
85782;BME280;76219;50.128;8.728;2024-03-08T11:37:21;100143.38;;;14.88;33.47
85782;BME280;76219;50.128;8.728;2024-03-08T11:39:52;100136.97;;;15.86;30.84
85782;BME280;76219;50.128;8.728;2024-03-08T11:42:30;100134.78;;;16.36;29.95
85782;BME280;76219;50.128;8.728;2024-03-08T11:44:59;100124.63;;;17.90;28.35
85782;BME280;76219;50.128;8.728;2024-03-08T11:47:34;100117.63;;;17.97;28.13
85782;BME280;76219;50.128;8.728;2024-03-08T11:50:04;100117.91;;;17.42;28.83
85782;BME280;76219;50.128;8.728;2024-03-08T11:52:38;100102.41;;;16.20;30.85
85782;BME280;76219;50.128;8.728;2024-03-08T11:55:08;100118.31;;;15.37;31.73
85782;BME280;76219;50.128;8.728;2024-03-08T11:57:40;100111.41;;;14.48;32.37
85782;BME280;76219;50.128;8.728;2024-03-08T12:00:14;100109.06;;;14.83;31.46
85782;BME280;76219;50.128;8.728;2024-03-08T12:03:02;100097.94;;;16.38;30.26
85782;BME280;76219;50.128;8.728;2024-03-08T12:05:33;100096.03;;;15.46;32.16
85782;BME280;76219;50.128;8.728;2024-03-08T12:08:02;100095.81;;;14.92;32.93
85782;BME280;76219;50.128;8.728;2024-03-08T12:10:32;100094.88;;;16.78;29.78
85782;BME280;76219;50.128;8.728;2024-03-08T12:13:04;100097.19;;;15.25;32.08
85782;BME280;76219;50.128;8.728;2024-03-08T12:15:41;100083.00;;;16.81;29.75
85782;BME280;76219;50.128;8.728;2024-03-08T12:18:11;100088.63;;;15.87;31.10
85782;BME280;76219;50.128;8.728;2024-03-08T12:20:43;100073.66;;;16.22;31.15
85782;BME280;76219;50.128;8.728;2024-03-08T12:23:17;100066.16;;;17.32;28.94
85782;BME280;76219;50.128;8.728;2024-03-08T12:25:47;100067.19;;;16.78;29.93
85782;BME280;76219;50.128;8.728;2024-03-08T12:28:19;100072.88;;;16.57;30.46
85782;BME280;76219;50.128;8.728;2024-03-08T12:30:50;100066.22;;;15.32;32.06
85782;BME280;76219;50.128;8.728;2024-03-08T12:33:21;100055.66;;;17.21;29.07
85782;BME280;76219;50.128;8.728;2024-03-08T12:35:51;100058.00;;;15.90;31.13
85782;BME280;76219;50.128;8.728;2024-03-08T12:38:22;100055.69;;;16.50;30.97
85782;BME280;76219;50.128;8.728;2024-03-08T12:40:55;100062.25;;;14.39;33.42
85782;BME280;76219;50.128;8.728;2024-03-08T12:43:38;100041.56;;;15.28;33.78
85782;BME280;76219;50.128;8.728;2024-03-08T12:46:07;100044.97;;;15.01;32.59
85782;BME280;76219;50.128;8.728;2024-03-08T12:48:36;100043.72;;;14.67;33.81
85782;BME280;76219;50.128;8.728;2024-03-08T12:51:09;100030.88;;;16.20;31.66
85782;BME280;76219;50.128;8.728;2024-03-08T12:53:39;100029.69;;;17.82;29.15
85782;BME280;76219;50.128;8.728;2024-03-08T12:56:16;100033.41;;;16.04;31.46
85782;BME280;76219;50.128;8.728;2024-03-08T12:58:49;100027.56;;;17.33;29.83
85782;BME280;76219;50.128;8.728;2024-03-08T13:01:21;100021.78;;;17.80;29.15
85782;BME280;76219;50.128;8.728;2024-03-08T13:03:51;100016.09;;;16.79;30.15
85782;BME280;76219;50.128;8.728;2024-03-08T13:06:20;100024.06;;;15.34;31.63
85782;BME280;76219;50.128;8.728;2024-03-08T13:08:57;100015.84;;;14.98;32.75
85782;BME280;76219;50.128;8.728;2024-03-08T13:11:32;100007.72;;;14.51;33.54
85782;BME280;76219;50.128;8.728;2024-03-08T13:14:05;100008.03;;;15.71;32.34
85782;BME280;76219;50.128;8.728;2024-03-08T13:16:35;100009.47;;;13.62;35.01
85782;BME280;76219;50.128;8.728;2024-03-08T13:19:03;100002.72;;;16.16;31.83